Preview of NWS' New Version of Forecast
This preview is not operational and should not be used for support decisions.

Terminal Aerodrome Forecast (TAF)

Issued by National Weather Service (NWS)

                            
000
FTUS42 KMFL 160901 AAA
TAFMIA
TAF AMD
KMIA 160901Z 1609/1712 00000KT P6SM FEW030 BKN050 BKN080
     FM161300 29008KT P6SM FEW035 SCT250
     FM170100 00000KT P6SM FEW250=